ADDS METAR Data INFO
IDs: Format: Raw Decoded Include TAF

Data at: 2344 UTC 15 Dec 2017

KORL 152253Z 28006KT 10SM CLR 22/09 A3009 RMK AO2 SLP192 T02170094
KORL 152153Z AUTO 29011KT 10SM CLR 23/11 A3006 RMK AO2 SLP184 T02330106
KORL 152053Z 27015G20KT 10SM CLR 24/12 A3004 RMK AO2 SLP175 T02440117 55005
KORL 151953Z 24010KT 10SM FEW041 FEW055 25/14 A3004 RMK AO2 SLP174 T02500144
KORL 151853Z 24009G16KT 10SM SCT041 BKN050 25/14 A3003 RMK AO2 SLP174 T02500144
KORL 151753Z 23012KT 10SM FEW041 BKN060 23/14 A3005 RMK AO2 SLP180 T02330139 10244 20161 58015
KORL 151653Z 21011KT 10SM SCT029 BKN050 23/13 A3008 RMK AO2 SLP189 T02330133
KORL 151553Z 19009KT 10SM SCT065 22/12 A3009 RMK AO2 SLP194 T02170122
KORL 151453Z 18009KT 10SM FEW028 21/12 A3010 RMK AO2 SLP196 T02060117 53009
KORL 151353Z 19008KT 10SM CLR 18/12 A3009 RMK AO2 SLP193 T01780122
KORL 151253Z 21005KT 10SM FEW039 SCT070 16/12 A3008 RMK AO2 SLP189 T01610117
KORL 151153Z 18007KT 10SM BKN036 OVC050 17/13 A3007 RMK AO2 SLP187 T01670128 10167 20156 53005
KORL 151053Z 19006KT 10SM FEW042 FEW050 OVC065 16/14 A3006 RMK AO2 SLP182 T01610144
KORL 150953Z 19005KT 10SM SCT040 BKN070 16/14 A3005 RMK AO2 SLP179 T01610139
KORL 150853Z 19006KT 10SM BKN046 OVC065 16/14 A3006 RMK AO2 SLP181 T01560139 55001
KORL 150753Z 17007KT 10SM SCT050 OVC060 16/13 A3005 RMK AO2 SLP181 T01560133
KORL 150653Z 18007KT 10SM BKN045 16/13 A3006 RMK AO2 SLP182 T01560133
KORL 150553Z 18005KT 10SM FEW065 16/13 A3006 RMK AO2 SLP182 T01610133 10189 20161 58003
KORL 150453Z 20005KT 10SM OVC065 17/13 A3007 RMK AO2 SLP187 T01720133 402330061
KORL 150353Z 22004KT 10SM OVC065 17/13 A3008 RMK AO2 SLP188 T01720128
KORL 150253Z 20004KT 10SM OVC060 17/14 A3007 RMK AO2 SLP186 T01720139 51010
KORL 150153Z 20003KT 10SM CLR 17/13 A3007 RMK AO2 SLP185 T01720128
KORL 150053Z 22004KT 10SM BKN065 18/14 A3005 RMK AO2 SLP182 T01780139
KORL 142353Z 00000KT 10SM BKN065 19/12 A3004 RMK AO2 SLP176 T01890122 10233 20189 53011
KORL 142253Z 30004KT 10SM OVC060 21/13 A3003 RMK AO2 SLP172 T02110128
KORL 142153Z 26004KT 10SM BKN060 22/12 A3000 RMK AO2 SLP163 T02170122
KORL 142053Z AUTO 27007KT 10SM FEW050 BKN065 22/12 A3000 RMK AO2 SLP164 T02220117 55003
KORL 141953Z 24006KT 10SM SCT060 22/12 A2999 RMK AO2 SLP159 T02220117
KORL 141853Z 22010G15KT 10SM FEW043 BKN055 23/12 A3000 RMK AO2 SLP162 T02280117
KORL 141753Z 22010KT 10SM SCT045 22/12 A3001 RMK AO2 SLP167 T02220117 10228 20089 58020
KORL 141653Z 25006KT 10SM CLR 21/12 A3004 RMK AO2 SLP175 T02110122
KORL 141553Z 20006KT 10SM CLR 19/12 A3007 RMK AO2 SLP186 T01890117
KORL 141453Z 20010KT 10SM CLR 17/11 A3007 RMK AO2 SLP188 T01670111 53009
KORL 141353Z 20008KT 10SM CLR 14/11 A3005 RMK AO2 SLP182 T01390106
KORL 141253Z 21005KT 10SM CLR 10/09 A3005 RMK AO2 SLP181 T01000089
KORL 141153Z 21004KT 10SM CLR 09/07 A3004 RMK AO2 SLP179 T00890067 10094 20061 53005